createdAt,value
2017-05-10T00:00:03.682Z,1006.87
2017-05-10T00:10:03.691Z,1006.79
2017-05-10T00:20:03.632Z,1006.62
2017-05-10T00:30:03.642Z,1006.64
2017-05-10T00:40:03.698Z,1006.33
2017-05-10T00:50:03.620Z,1006.33
2017-05-10T01:00:03.661Z,1006.33
2017-05-10T01:10:04.638Z,1006.1
2017-05-10T01:20:03.620Z,1006.03
2017-05-10T01:30:03.637Z,1005.92
2017-05-10T01:40:03.652Z,1005.87
2017-05-10T01:50:03.725Z,1005.67
2017-05-10T02:00:03.679Z,1005.58
2017-05-10T02:10:03.621Z,1005.5
2017-05-10T02:20:03.706Z,1005.49
2017-05-10T02:30:03.605Z,1005.37
2017-05-10T02:40:03.600Z,1005.19
2017-05-10T02:50:03.596Z,1005.15
2017-05-10T03:00:03.590Z,1005.04
2017-05-10T03:10:03.610Z,1005
2017-05-10T03:20:03.663Z,1004.8
2017-05-10T03:30:03.631Z,1004.79
2017-05-10T03:40:03.584Z,1004.65
2017-05-10T03:50:03.582Z,1004.6
2017-05-10T04:00:03.583Z,1004.56
2017-05-10T04:10:03.684Z,1004.5
2017-05-10T04:20:03.646Z,1004.52
2017-05-10T04:30:03.600Z,1004.57
2017-05-10T04:40:03.566Z,1004.63
2017-05-10T04:50:03.629Z,1004.63
2017-05-10T05:00:03.586Z,1004.73
2017-05-10T05:10:03.566Z,1004.69
2017-05-10T05:20:03.633Z,1004.79
2017-05-10T05:30:03.667Z,1004.85
2017-05-10T05:40:03.555Z,1004.81
2017-05-10T05:50:03.900Z,1004.78
2017-05-10T06:00:03.562Z,1004.63
2017-05-10T06:10:03.553Z,1004.55
2017-05-10T06:20:03.579Z,1004.51
2017-05-10T06:30:03.550Z,1004.56
2017-05-10T06:40:03.595Z,1004.49
2017-05-10T06:50:03.659Z,1004.58
2017-05-10T07:00:03.562Z,1004.44
2017-05-10T07:10:03.566Z,1004.47
2017-05-10T07:20:03.650Z,1004.47
2017-05-10T07:30:03.559Z,1004.51
2017-05-10T07:40:04.050Z,1004.46
2017-05-10T07:50:03.628Z,1004.32
2017-05-10T08:00:03.573Z,1004.28
2017-05-10T08:10:03.595Z,1004.25
2017-05-10T08:20:03.612Z,1004.2
2017-05-10T08:30:03.582Z,1004.02
2017-05-10T08:40:03.602Z,1004.23
2017-05-10T08:50:03.601Z,1003.94
2017-05-10T09:00:03.586Z,1003.79
2017-05-10T09:10:03.620Z,1003.72
2017-05-10T09:20:03.597Z,1003.68
2017-05-10T09:30:03.588Z,1003.6
2017-05-10T09:40:03.619Z,1003.51
2017-05-10T09:50:03.595Z,1003.39
2017-05-10T10:00:03.621Z,1003.28
2017-05-10T10:10:03.611Z,1003.21
2017-05-10T10:20:03.597Z,1003.33
2017-05-10T10:30:03.604Z,1003.23
2017-05-10T10:40:03.602Z,1003.15
2017-05-10T10:50:03.605Z,1003.1
2017-05-10T11:00:03.607Z,1002.92
2017-05-10T11:10:03.610Z,1002.77
2017-05-10T11:20:03.604Z,1002.7
2017-05-10T11:30:03.927Z,1002.7
2017-05-10T11:40:03.607Z,1002.62
2017-05-10T11:50:03.652Z,1002.53
2017-05-10T12:00:03.608Z,1002.36
2017-05-10T12:10:03.610Z,1002.31
2017-05-10T12:20:03.614Z,1002.23
2017-05-10T12:30:03.606Z,1002.19
2017-05-10T12:40:03.608Z,1002
2017-05-10T12:50:03.608Z,1001.93
2017-05-10T13:00:03.607Z,1001.74
2017-05-10T13:10:03.623Z,1001.54
2017-05-10T13:20:03.616Z,1001.5
2017-05-10T13:30:03.623Z,1001.33
2017-05-10T13:40:03.606Z,1001.26
2017-05-10T13:50:03.612Z,1001.16
2017-05-10T14:00:03.609Z,1001
2017-05-10T14:10:03.617Z,1000.89
2017-05-10T14:20:03.618Z,1000.71
2017-05-10T14:30:03.647Z,1000.63
2017-05-10T14:40:03.721Z,1000.48
2017-05-10T14:50:03.612Z,1000.39
2017-05-10T15:00:03.623Z,1000.29
2017-05-10T15:10:03.613Z,1000.29
2017-05-10T15:20:03.661Z,1000.05
2017-05-10T15:30:03.623Z,1000
2017-05-10T15:40:03.618Z,999.95
2017-05-10T15:50:03.627Z,999.83
2017-05-10T16:00:03.631Z,999.73
2017-05-10T16:10:03.616Z,999.7
2017-05-10T16:20:04.665Z,999.69
2017-05-10T16:30:03.618Z,999.65
2017-05-10T16:50:03.616Z,999.43
2017-05-10T17:00:03.615Z,999.4
2017-05-10T17:10:03.627Z,999.22
2017-05-10T17:20:03.632Z,999.16
2017-05-10T17:30:03.616Z,999.03
2017-05-10T17:40:03.643Z,998.92
2017-05-10T17:50:03.625Z,998.83
2017-05-10T18:00:03.646Z,998.95
2017-05-10T18:10:03.621Z,998.95
2017-05-10T18:20:03.624Z,998.86
2017-05-10T18:30:03.726Z,998.81
2017-05-10T18:40:03.626Z,998.82
2017-05-10T18:50:03.628Z,998.8
2017-05-10T19:00:03.747Z,998.72
2017-05-10T19:10:03.629Z,998.76
2017-05-10T19:20:03.625Z,998.79
2017-05-10T19:30:03.731Z,998.79
2017-05-10T19:40:03.610Z,998.85
2017-05-10T19:50:03.658Z,998.86
2017-05-10T20:00:03.615Z,998.94
2017-05-10T20:10:03.622Z,998.98
2017-05-10T20:20:03.615Z,998.96
2017-05-10T20:30:03.648Z,998.91
2017-05-10T20:40:03.605Z,998.94
2017-05-10T20:50:03.622Z,998.95
2017-05-10T21:00:03.681Z,998.93
2017-05-10T21:10:03.625Z,998.9
2017-05-10T21:20:03.610Z,998.81
2017-05-10T21:30:04.702Z,998.8
2017-05-10T21:40:03.616Z,998.85
2017-05-10T21:50:03.759Z,998.91
2017-05-10T22:00:03.608Z,998.93
2017-05-10T22:10:03.708Z,998.84
2017-05-10T22:20:03.599Z,998.85
2017-05-10T22:30:03.698Z,998.76
2017-05-10T22:40:03.602Z,998.74
2017-05-10T22:50:03.667Z,998.68
2017-05-10T23:00:03.592Z,998.54
2017-05-10T23:10:03.593Z,998.57
2017-05-10T23:20:03.626Z,998.58
2017-05-10T23:30:03.596Z,998.48
2017-05-10T23:40:03.577Z,998.37
2017-05-10T23:50:03.617Z,998.21
